Time;durP1;ratioP1;P1;durP2;ratioP2;P2;SDS_P1;SDS_P2;PMS_P1;PMS_P2;Temp;Humidity;BMP_temperature;BMP_pressure;BME280_temperature;BME280_humidity;BME280_pressure;Samples;Min_cycle;Max_cycle;Signal;HPM_P1;HPM_P2
2021/12/15 00:01:15;;;;;;;162.93;53.72;;;;;;;;;;5009305;28;20034;-61
2021/12/15 00:03:42;;;;;;;151.75;53.97;;;;;;;;;;5008688;28;20073;-61
2021/12/15 00:06:13;;;;;;;146.70;52.33;;;;;;;;;;5008263;28;20069;-61
2021/12/15 00:08:40;;;;;;;166.65;54.50;;;;;;;;;;5022134;28;20445;-62
2021/12/15 00:11:06;;;;;;;125.18;47.78;;;;;;;;;;5006880;28;20431;-62
2021/12/15 00:13:33;;;;;;;137.40;51.88;;;;;;;;;;5008501;28;20053;-61
2021/12/15 00:15:59;;;;;;;134.52;51.75;;;;;;;;;;4991696;28;20514;-61
2021/12/15 00:18:26;;;;;;;111.60;47.45;;;;;;;;;;5007194;28;20189;-61
2021/12/15 00:20:52;;;;;;;119.13;49.35;;;;;;;;;;5024580;28;20420;-62
2021/12/15 00:23:18;;;;;;;120.07;48.65;;;;;;;;;;5008922;28;20042;-61
2021/12/15 00:25:44;;;;;;;104.82;45.40;;;;;;;;;;5008668;28;20049;-62
2021/12/15 00:28:11;;;;;;;124.25;49.45;;;;;;;;;;5006902;28;20046;-61
2021/12/15 00:30:38;;;;;;;105.10;45.67;;;;;;;;;;5015765;28;20480;-61
2021/12/15 00:33:06;;;;;;;116.13;47.80;;;;;;;;;;5006407;28;20042;-63
2021/12/15 00:35:32;;;;;;;110.25;47.78;;;;;;;;;;5008886;28;20192;-61
2021/12/15 00:37:58;;;;;;;102.07;46.08;;;;;;;;;;5008029;28;20041;-61
2021/12/15 00:40:25;;;;;;;98.00;46.45;;;;;;;;;;5008024;28;20128;-62
2021/12/15 00:42:51;;;;;;;94.30;46.28;;;;;;;;;;5008882;28;20041;-62
2021/12/15 00:45:18;;;;;;;84.22;40.65;;;;;;;;;;5006948;28;20396;-62
2021/12/15 00:47:45;;;;;;;93.60;44.83;;;;;;;;;;5008728;28;20050;-62
2021/12/15 00:50:12;;;;;;;107.75;47.00;;;;;;;;;;5007688;28;20060;-62
2021/12/15 00:52:39;;;;;;;98.90;43.83;;;;;;;;;;5008271;28;20049;-63
2021/12/15 00:55:07;;;;;;;89.63;43.65;;;;;;;;;;5007451;28;20092;-62
2021/12/15 00:57:34;;;;;;;106.47;47.33;;;;;;;;;;5006621;28;20144;-61
2021/12/15 01:00:01;;;;;;;87.85;41.95;;;;;;;;;;5021454;28;20069;-63
2021/12/15 01:02:27;;;;;;;96.40;46.70;;;;;;;;;;5013485;28;20038;-62
2021/12/15 01:04:53;;;;;;;89.50;44.25;;;;;;;;;;5006945;28;20045;-61
2021/12/15 01:07:20;;;;;;;96.70;45.90;;;;;;;;;;5004872;28;20038;-61
2021/12/15 01:09:51;;;;;;;105.18;47.78;;;;;;;;;;5004726;28;20041;-61
2021/12/15 01:20:23;;;;;;;85.00;43.00;;;;;;;;;;5004955;28;20506;-62
2021/12/15 01:22:50;;;;;;;97.65;47.78;;;;;;;;;;5003986;28;20045;-62
2021/12/15 01:25:37;;;;;;;98.38;45.33;;;;;;;;;;5006416;28;20809;-61
2021/12/15 01:28:04;;;;;;;85.25;40.15;;;;;;;;;;5006276;28;20546;-61
2021/12/15 01:30:32;;;;;;;83.28;41.78;;;;;;;;;;4998297;28;20423;-62
2021/12/15 01:32:59;;;;;;;94.00;44.53;;;;;;;;;;5008729;28;20120;-62
2021/12/15 01:35:25;;;;;;;82.30;39.97;;;;;;;;;;5008381;28;20132;-63
2021/12/15 01:37:52;;;;;;;81.05;40.70;;;;;;;;;;5018934;28;20060;-62
2021/12/15 01:40:32;;;;;;;85.75;42.08;;;;;;;;;;5007980;28;20046;-63
2021/12/15 01:42:59;;;;;;;78.78;38.95;;;;;;;;;;5025236;28;20077;-62
2021/12/15 01:48:13;;;;;;;83.97;41.88;;;;;;;;;;5002486;28;20045;-63
2021/12/15 01:50:40;;;;;;;89.70;43.40;;;;;;;;;;5008532;28;20046;-63
2021/12/15 01:53:06;;;;;;;88.22;43.30;;;;;;;;;;5018876;28;20121;-63
2021/12/15 01:55:32;;;;;;;92.57;44.95;;;;;;;;;;5008741;28;20415;-63
2021/12/15 01:57:58;;;;;;;86.97;40.63;;;;;;;;;;5009763;28;20085;-63
2021/12/15 02:00:42;;;;;;;93.45;42.35;;;;;;;;;;5008500;28;20404;-62
2021/12/15 02:03:09;;;;;;;87.43;43.70;;;;;;;;;;5007892;28;20041;-62
2021/12/15 02:05:35;;;;;;;90.22;43.50;;;;;;;;;;5008040;28;20076;-62
2021/12/15 02:08:01;;;;;;;92.55;43.13;;;;;;;;;;5007200;28;20196;-63
2021/12/15 02:10:31;;;;;;;92.05;43.20;;;;;;;;;;5008007;28;20058;-63
2021/12/15 02:12:58;;;;;;;92.68;46.00;;;;;;;;;;5023130;28;20121;-63
2021/12/15 02:15:29;;;;;;;89.82;45.28;;;;;;;;;;5008685;28;20152;-63
2021/12/15 02:17:56;;;;;;;89.53;44.88;;;;;;;;;;5009462;28;20033;-63
2021/12/15 02:20:36;;;;;;;82.75;44.38;;;;;;;;;;5007881;28;20038;-63
2021/12/15 02:23:02;;;;;;;91.18;45.50;;;;;;;;;;5008929;28;20045;-63
2021/12/15 02:25:29;;;;;;;89.85;46.53;;;;;;;;;;5007303;28;20446;-63
2021/12/15 02:27:55;;;;;;;85.30;44.55;;;;;;;;;;5007957;28;20056;-63
2021/12/15 02:30:42;;;;;;;85.45;43.83;;;;;;;;;;5009227;28;20084;-63
2021/12/15 02:34:03;;;;;;;83.15;44.15;;;;;;;;;;5007462;28;20034;-63
2021/12/15 02:38:46;;;;;;;85.00;45.65;;;;;;;;;;5009018;28;20065;-62
2021/12/15 02:41:23;;;;;;;82.15;44.33;;;;;;;;;;5007957;28;20038;-63
2021/12/15 02:43:51;;;;;;;82.07;44.08;;;;;;;;;;5013141;28;20054;-62
2021/12/15 02:46:17;;;;;;;85.78;45.20;;;;;;;;;;5008027;28;20415;-63
2021/12/15 02:48:43;;;;;;;87.38;44.53;;;;;;;;;;5008401;28;20092;-62
2021/12/15 02:51:09;;;;;;;83.22;43.78;;;;;;;;;;5008554;28;20045;-62
2021/12/15 02:53:35;;;;;;;84.57;43.80;;;;;;;;;;5009274;28;20130;-62
2021/12/15 02:56:02;;;;;;;104.80;48.70;;;;;;;;;;5008230;28;20050;-64
2021/12/15 02:58:33;;;;;;;90.00;47.55;;;;;;;;;;5008435;28;20045;-64
2021/12/15 03:01:06;;;;;;;85.60;45.50;;;;;;;;;;5025060;28;20850;-63
2021/12/15 03:06:25;;;;;;;85.05;44.33;;;;;;;;;;5012931;28;20054;-63
2021/12/15 03:09:13;;;;;;;86.30;44.63;;;;;;;;;;5008793;28;20050;-62
2021/12/15 03:17:09;;;;;;;89.50;47.45;;;;;;;;;;5007956;28;20041;-63
2021/12/15 03:19:36;;;;;;;101.35;48.17;;;;;;;;;;5007052;28;20041;-62
2021/12/15 03:22:02;;;;;;;83.97;42.60;;;;;;;;;;5008229;28;20472;-63
2021/12/15 03:24:28;;;;;;;88.57;43.47;;;;;;;;;;5006858;28;20041;-62
2021/12/15 03:27:01;;;;;;;85.15;42.38;;;;;;;;;;5006872;28;20100;-63
2021/12/15 03:35:17;;;;;;;80.50;39.15;;;;;;;;;;5007960;28;20351;-62
2021/12/15 03:37:45;;;;;;;99.15;47.97;;;;;;;;;;5009419;28;20124;-62
2021/12/15 03:40:20;;;;;;;80.55;44.75;;;;;;;;;;5008610;28;20464;-62
2021/12/15 03:42:55;;;;;;;82.22;44.00;;;;;;;;;;5008329;28;20190;-62
2021/12/15 03:45:25;;;;;;;78.18;42.25;;;;;;;;;;5008365;28;20085;-62
2021/12/15 03:47:51;;;;;;;80.88;44.22;;;;;;;;;;5009474;28;20506;-62
2021/12/15 03:50:19;;;;;;;79.30;42.75;;;;;;;;;;5008058;28;20037;-62
2021/12/15 03:52:49;;;;;;;89.68;46.85;;;;;;;;;;5008011;28;20038;-62
2021/12/15 03:55:16;;;;;;;81.00;45.78;;;;;;;;;;5008392;28;20447;-61
2021/12/15 03:57:42;;;;;;;90.13;46.60;;;;;;;;;;5007979;28;20129;-62
2021/12/15 04:00:09;;;;;;;89.45;46.70;;;;;;;;;;5009280;28;20044;-62
2021/12/15 04:02:35;;;;;;;89.55;46.75;;;;;;;;;;5006864;28;20390;-61
2021/12/15 04:05:01;;;;;;;88.47;47.95;;;;;;;;;;5007940;28;20038;-62
2021/12/15 04:07:27;;;;;;;90.80;48.38;;;;;;;;;;4991415;28;20045;-61
2021/12/15 04:09:54;;;;;;;91.35;47.38;;;;;;;;;;5009207;28;20038;-61
2021/12/15 04:12:20;;;;;;;91.35;48.95;;;;;;;;;;5009558;28;20068;-61
2021/12/15 04:14:55;;;;;;;80.85;46.92;;;;;;;;;;5007332;28;20412;-62
2021/12/15 04:17:30;;;;;;;92.63;49.72;;;;;;;;;;5007653;28;20037;-62
2021/12/15 04:19:58;;;;;;;88.57;48.67;;;;;;;;;;5009428;28;20188;-61
2021/12/15 04:22:24;;;;;;;87.82;47.72;;;;;;;;;;5009075;28;20073;-61
2021/12/15 04:24:51;;;;;;;91.47;49.50;;;;;;;;;;5007701;28;20112;-61
2021/12/15 04:27:17;;;;;;;90.80;49.55;;;;;;;;;;5008688;28;20125;-61
2021/12/15 04:29:44;;;;;;;100.55;52.53;;;;;;;;;;5007658;28;20112;-62
2021/12/15 04:32:14;;;;;;;87.47;46.72;;;;;;;;;;5006604;28;20070;-62
2021/12/15 04:34:40;;;;;;;86.35;47.17;;;;;;;;;;5006121;28;20078;-61
2021/12/15 04:37:06;;;;;;;81.97;46.58;;;;;;;;;;5006752;28;20084;-63
2021/12/15 04:39:32;;;;;;;90.22;50.05;;;;;;;;;;5007166;28;20037;-63
2021/12/15 04:41:59;;;;;;;84.72;45.28;;;;;;;;;;5008729;28;20041;-63
2021/12/15 04:44:26;;;;;;;86.60;49.88;;;;;;;;;;5009123;28;20369;-61
2021/12/15 04:47:00;;;;;;;81.28;46.72;;;;;;;;;;5008621;28;20046;-61
2021/12/15 04:49:29;;;;;;;83.65;47.80;;;;;;;;;;5007555;28;20056;-62
2021/12/15 04:51:55;;;;;;;76.60;45.05;;;;;;;;;;5008769;28;20500;-61
2021/12/15 04:54:21;;;;;;;80.47;47.03;;;;;;;;;;5007857;28;20064;-61
2021/12/15 04:56:48;;;;;;;86.00;47.22;;;;;;;;;;5008655;28;20461;-61
2021/12/15 04:59:14;;;;;;;75.60;44.45;;;;;;;;;;5005841;28;20051;-63
2021/12/15 05:01:41;;;;;;;83.05;47.65;;;;;;;;;;5008016;28;20037;-62
2021/12/15 05:04:07;;;;;;;80.63;46.50;;;;;;;;;;5008119;28;20044;-62
2021/12/15 05:06:33;;;;;;;87.45;48.65;;;;;;;;;;5008258;28;20060;-62
2021/12/15 05:09:00;;;;;;;80.63;47.03;;;;;;;;;;5012771;28;20169;-61
2021/12/15 05:11:26;;;;;;;77.63;42.40;;;;;;;;;;5009848;28;20100;-62
2021/12/15 05:13:52;;;;;;;77.90;44.30;;;;;;;;;;5009151;28;20042;-62
2021/12/15 05:16:18;;;;;;;78.32;44.58;;;;;;;;;;5008390;28;20045;-62
2021/12/15 05:18:45;;;;;;;76.40;43.67;;;;;;;;;;5010416;28;20129;-61
2021/12/15 05:21:11;;;;;;;81.20;44.67;;;;;;;;;;5008591;28;20125;-62
2021/12/15 05:23:38;;;;;;;81.13;44.85;;;;;;;;;;4992296;28;20045;-62
2021/12/15 05:26:05;;;;;;;82.78;44.60;;;;;;;;;;5008316;28;20076;-62
2021/12/15 05:28:31;;;;;;;78.47;45.08;;;;;;;;;;5008873;28;20505;-62
2021/12/15 05:30:58;;;;;;;78.88;42.70;;;;;;;;;;5008952;28;20488;-61
2021/12/15 05:33:25;;;;;;;72.72;40.78;;;;;;;;;;5009022;28;20068;-62
2021/12/15 05:35:51;;;;;;;82.40;43.55;;;;;;;;;;5008336;28;20138;-62
2021/12/15 05:38:18;;;;;;;77.40;41.60;;;;;;;;;;5008950;28;20053;-61
2021/12/15 05:40:44;;;;;;;72.07;42.72;;;;;;;;;;5008278;28;20038;-61
2021/12/15 05:43:11;;;;;;;81.65;42.47;;;;;;;;;;5007712;28;20137;-62
2021/12/15 05:45:38;;;;;;;76.70;44.10;;;;;;;;;;5007210;28;20049;-62
2021/12/15 05:48:06;;;;;;;76.93;42.97;;;;;;;;;;5008069;28;20049;-63
2021/12/15 05:50:32;;;;;;;73.90;40.80;;;;;;;;;;5008252;28;20037;-62
2021/12/15 05:53:00;;;;;;;83.43;41.20;;;;;;;;;;5009390;28;20060;-63
2021/12/15 05:55:26;;;;;;;78.82;43.85;;;;;;;;;;5009543;28;20073;-62
2021/12/15 05:57:52;;;;;;;83.30;44.75;;;;;;;;;;5009915;28;20656;-61
2021/12/15 06:00:24;;;;;;;74.97;42.72;;;;;;;;;;5009723;28;20724;-61
2021/12/15 06:02:51;;;;;;;83.65;44.50;;;;;;;;;;5010088;28;20065;-62
2021/12/15 06:05:17;;;;;;;84.82;44.75;;;;;;;;;;5007160;28;20065;-62
2021/12/15 06:07:43;;;;;;;87.75;46.25;;;;;;;;;;5009384;28;20117;-62
2021/12/15 06:10:12;;;;;;;79.57;42.00;;;;;;;;;;5007197;28;20192;-62
2021/12/15 06:12:38;;;;;;;84.03;45.28;;;;;;;;;;5011488;28;20041;-62
2021/12/15 06:15:05;;;;;;;83.72;44.15;;;;;;;;;;5008144;28;20042;-62
2021/12/15 06:17:31;;;;;;;81.75;42.70;;;;;;;;;;5006635;28;20064;-62
2021/12/15 06:19:58;;;;;;;80.88;44.65;;;;;;;;;;5009847;28;20034;-62
2021/12/15 06:22:27;;;;;;;75.88;41.47;;;;;;;;;;5006879;28;20133;-63
2021/12/15 06:24:57;;;;;;;78.95;41.85;;;;;;;;;;4998322;28;20038;-62
2021/12/15 06:27:24;;;;;;;85.30;43.83;;;;;;;;;;5009496;28;20044;-63
2021/12/15 06:29:51;;;;;;;79.07;42.20;;;;;;;;;;5007920;28;20042;-62
2021/12/15 06:32:17;;;;;;;76.05;40.97;;;;;;;;;;5010025;28;20132;-62
2021/12/15 06:34:43;;;;;;;77.63;42.03;;;;;;;;;;5007669;28;20037;-62
2021/12/15 06:37:10;;;;;;;73.47;39.65;;;;;;;;;;5009244;28;20392;-62
2021/12/15 06:39:36;;;;;;;84.82;41.90;;;;;;;;;;5007353;28;20373;-62
2021/12/15 06:42:03;;;;;;;79.75;44.42;;;;;;;;;;5008062;28;20125;-62
2021/12/15 06:44:29;;;;;;;82.22;46.30;;;;;;;;;;5006233;28;20176;-61
2021/12/15 07:00:29;;;;;;;83.72;44.13;;;;;;;;;;5006312;28;20042;-62
2021/12/15 07:02:55;;;;;;;78.30;42.92;;;;;;;;;;5008885;28;20050;-62
2021/12/15 07:05:22;;;;;;;79.68;41.10;;;;;;;;;;5009763;28;20042;-62
2021/12/15 07:07:49;;;;;;;89.60;46.00;;;;;;;;;;5009227;28;20046;-61
2021/12/15 07:10:16;;;;;;;78.70;41.25;;;;;;;;;;5010398;28;20231;-62
2021/12/15 07:12:42;;;;;;;80.88;42.58;;;;;;;;;;5010621;28;20104;-62
2021/12/15 07:15:09;;;;;;;86.40;45.20;;;;;;;;;;5008861;28;20046;-62
2021/12/15 07:17:36;;;;;;;82.65;43.58;;;;;;;;;;5009538;28;20077;-62
2021/12/15 07:20:18;;;;;;;82.20;43.97;;;;;;;;;;5006653;28;20056;-63
2021/12/15 07:22:44;;;;;;;74.75;42.10;;;;;;;;;;5007913;28;20037;-62
2021/12/15 07:25:12;;;;;;;79.97;41.70;;;;;;;;;;5006715;28;20140;-63
2021/12/15 07:27:39;;;;;;;80.28;44.25;;;;;;;;;;5010536;28;20455;-62
2021/12/15 07:30:06;;;;;;;82.93;43.05;;;;;;;;;;5008132;28;20040;-62
2021/12/15 07:32:32;;;;;;;81.50;42.65;;;;;;;;;;5009444;28;20129;-62
2021/12/15 07:34:58;;;;;;;81.93;43.83;;;;;;;;;;5008919;28;20130;-62
2021/12/15 07:37:24;;;;;;;78.85;43.92;;;;;;;;;;5009813;28;20089;-63
2021/12/15 07:39:59;;;;;;;80.07;43.47;;;;;;;;;;5008817;28;20095;-63
2021/12/15 07:42:55;;;;;;;80.47;44.17;;;;;;;;;;5007325;28;20061;-63
2021/12/15 07:45:15;;;;;;;73.03;38.22;;;;;;;;;;5009071;28;20099;-63
2021/12/15 07:47:41;;;;;;;75.35;41.15;;;;;;;;;;5008799;28;20052;-63
2021/12/15 07:50:07;;;;;;;80.05;42.30;;;;;;;;;;5007398;28;20445;-62
2021/12/15 07:52:34;;;;;;;69.95;39.63;;;;;;;;;;5007138;28;20046;-62
2021/12/15 07:55:00;;;;;;;77.45;41.40;;;;;;;;;;5008692;28;20064;-64
2021/12/15 07:57:28;;;;;;;74.70;40.33;;;;;;;;;;5008032;28;20135;-63
2021/12/15 07:59:57;;;;;;;75.40;41.08;;;;;;;;;;5008259;28;20507;-63
2021/12/15 08:02:23;;;;;;;70.50;39.13;;;;;;;;;;5008660;28;20099;-63
2021/12/15 08:04:49;;;;;;;69.38;36.42;;;;;;;;;;4990376;28;20133;-63
2021/12/15 08:07:15;;;;;;;64.00;35.30;;;;;;;;;;5007992;28;20065;-63
2021/12/15 08:09:42;;;;;;;65.22;37.78;;;;;;;;;;5007096;28;20072;-63
2021/12/15 08:12:08;;;;;;;68.55;37.95;;;;;;;;;;5023458;28;20392;-63
2021/12/15 08:14:35;;;;;;;69.25;38.65;;;;;;;;;;5008565;28;20512;-63
2021/12/15 08:17:01;;;;;;;55.08;33.58;;;;;;;;;;5008999;28;20404;-63
2021/12/15 08:19:27;;;;;;;63.65;36.35;;;;;;;;;;5008205;28;20488;-63
2021/12/15 08:21:53;;;;;;;61.88;34.25;;;;;;;;;;5008073;28;20056;-63
2021/12/15 08:24:19;;;;;;;62.20;33.47;;;;;;;;;;5006849;28;20395;-63
2021/12/15 08:26:46;;;;;;;62.63;35.30;;;;;;;;;;5007369;28;20495;-63
2021/12/15 08:29:12;;;;;;;57.05;33.72;;;;;;;;;;5008510;28;20439;-62
2021/12/15 08:31:38;;;;;;;56.95;33.50;;;;;;;;;;5009520;28;20038;-63
2021/12/15 08:34:06;;;;;;;59.03;33.30;;;;;;;;;;5007287;28;20104;-62
2021/12/15 08:36:32;;;;;;;55.40;29.83;;;;;;;;;;5007022;28;20484;-63
2021/12/15 08:38:58;;;;;;;42.83;24.98;;;;;;;;;;5008034;28;20386;-63
2021/12/15 08:41:26;;;;;;;49.58;29.17;;;;;;;;;;5006582;28;20042;-63
2021/12/15 08:43:52;;;;;;;51.90;28.98;;;;;;;;;;5007788;28;20107;-63
2021/12/15 08:46:20;;;;;;;46.80;26.98;;;;;;;;;;5008875;28;20042;-63
2021/12/15 08:48:48;;;;;;;46.03;26.67;;;;;;;;;;5008321;28;20488;-62
2021/12/15 08:51:14;;;;;;;36.78;22.02;;;;;;;;;;5009661;28;20083;-62
2021/12/15 08:53:41;;;;;;;40.10;23.75;;;;;;;;;;5008574;28;20049;-63
2021/12/15 08:56:08;;;;;;;40.35;22.42;;;;;;;;;;5007463;28;20103;-63
2021/12/15 08:58:34;;;;;;;34.10;19.75;;;;;;;;;;5007696;28;20041;-63
2021/12/15 09:01:00;;;;;;;29.65;16.92;;;;;;;;;;5007756;28;20054;-63
2021/12/15 09:03:28;;;;;;;28.20;16.42;;;;;;;;;;5009150;28;20050;-62
2021/12/15 09:05:55;;;;;;;31.95;17.42;;;;;;;;;;5008987;28;20488;-62
2021/12/15 09:08:23;;;;;;;30.60;17.95;;;;;;;;;;5005909;28;20033;-63
2021/12/15 09:10:50;;;;;;;29.83;16.70;;;;;;;;;;5008747;28;20095;-62
2021/12/15 09:13:16;;;;;;;33.10;17.20;;;;;;;;;;5016817;28;20049;-62
2021/12/15 09:15:43;;;;;;;26.48;14.27;;;;;;;;;;5006279;28;20096;-62
2021/12/15 09:18:10;;;;;;;28.98;18.50;;;;;;;;;;5006905;28;20053;-63
2021/12/15 09:20:37;;;;;;;28.92;17.50;;;;;;;;;;5006967;28;20096;-62
2021/12/15 09:23:06;;;;;;;29.13;17.02;;;;;;;;;;5006478;28;20044;-62
2021/12/15 09:25:33;;;;;;;30.30;16.20;;;;;;;;;;5006416;28;20042;-61
2021/12/15 09:27:59;;;;;;;27.98;16.52;;;;;;;;;;5015891;28;20287;-62
2021/12/15 09:30:26;;;;;;;31.60;17.15;;;;;;;;;;5011990;28;20123;-63
2021/12/15 09:32:53;;;;;;;32.10;16.00;;;;;;;;;;5005588;28;20110;-63
2021/12/15 09:35:20;;;;;;;33.90;16.85;;;;;;;;;;5006455;28;20045;-62
2021/12/15 09:37:46;;;;;;;36.00;17.92;;;;;;;;;;5005731;28;20045;-62
2021/12/15 09:40:14;;;;;;;35.22;18.17;;;;;;;;;;5008012;28;20123;-62
2021/12/15 09:42:40;;;;;;;30.30;17.73;;;;;;;;;;5007764;28;20468;-62
2021/12/15 09:45:22;;;;;;;31.23;16.65;;;;;;;;;;5006465;28;20139;-62
2021/12/15 10:04:32;;;;;;;29.60;16.20;;;;;;;;;;5010334;28;20115;-62
2021/12/15 10:07:19;;;;;;;29.35;16.20;;;;;;;;;;5008102;28;20578;-62
2021/12/15 10:20:54;;;;;;;25.95;15.35;;;;;;;;;;5009058;28;20050;-61
2021/12/15 10:23:24;;;;;;;27.48;14.07;;;;;;;;;;5009644;28;20500;-62
2021/12/15 10:25:54;;;;;;;25.42;13.82;;;;;;;;;;5009973;28;20129;-62
2021/12/15 10:28:22;;;;;;;22.48;13.68;;;;;;;;;;5010354;28;20515;-63
2021/12/15 10:30:57;;;;;;;24.25;14.20;;;;;;;;;;5009704;28;20132;-62
2021/12/15 10:33:24;;;;;;;25.77;12.70;;;;;;;;;;5007326;28;20381;-61
2021/12/15 10:35:53;;;;;;;21.55;12.15;;;;;;;;;;5008109;28;20046;-61
2021/12/15 10:38:24;;;;;;;20.15;12.00;;;;;;;;;;5009115;28;20036;-61
2021/12/15 10:40:50;;;;;;;18.20;12.73;;;;;;;;;;5025726;28;20045;-61
2021/12/15 10:43:16;;;;;;;18.52;10.63;;;;;;;;;;5010568;28;20046;-61
2021/12/15 10:45:44;;;;;;;21.05;11.35;;;;;;;;;;5013590;28;20100;-61
2021/12/15 10:48:22;;;;;;;16.77;9.63;;;;;;;;;;5011919;28;20046;-62
2021/12/15 10:50:49;;;;;;;18.20;9.70;;;;;;;;;;5011407;28;20530;-61
2021/12/15 10:53:15;;;;;;;15.88;8.98;;;;;;;;;;5012695;28;20042;-61
2021/12/15 10:55:41;;;;;;;18.25;9.63;;;;;;;;;;5011240;28;20046;-62
2021/12/15 10:58:27;;;;;;;16.00;8.90;;;;;;;;;;5012756;28;20073;-61
2021/12/15 11:00:53;;;;;;;15.50;9.77;;;;;;;;;;5012280;28;20046;-62
2021/12/15 11:03:23;;;;;;;19.20;9.70;;;;;;;;;;5012314;28;20046;-61
2021/12/15 11:05:49;;;;;;;17.48;9.95;;;;;;;;;;5012307;28;20546;-62
2021/12/15 11:08:20;;;;;;;18.25;9.57;;;;;;;;;;5011916;28;20041;-61
2021/12/15 11:10:46;;;;;;;20.20;10.02;;;;;;;;;;5010527;28;20634;-62
2021/12/15 11:13:15;;;;;;;15.75;9.48;;;;;;;;;;5010693;28;20045;-61
2021/12/15 11:15:46;;;;;;;17.75;9.23;;;;;;;;;;5010095;28;20132;-62
2021/12/15 11:18:19;;;;;;;20.88;9.90;;;;;;;;;;5010785;28;20085;-62
2021/12/15 11:20:56;;;;;;;16.27;8.07;;;;;;;;;;5010546;28;20128;-61
2021/12/15 11:23:23;;;;;;;17.00;8.68;;;;;;;;;;5011931;28;20099;-62
2021/12/15 11:25:51;;;;;;;17.20;8.85;;;;;;;;;;5011941;28;20059;-61
2021/12/15 11:28:17;;;;;;;17.42;9.15;;;;;;;;;;5010675;28;20119;-62
2021/12/15 11:30:52;;;;;;;16.60;9.05;;;;;;;;;;5011761;28;20052;-62
2021/12/15 11:33:20;;;;;;;18.85;9.45;;;;;;;;;;5009955;28;20046;-61
2021/12/15 11:35:46;;;;;;;16.38;8.45;;;;;;;;;;5011437;28;20038;-62
2021/12/15 11:38:15;;;;;;;18.33;9.18;;;;;;;;;;5011968;28;20387;-61
2021/12/15 11:41:01;;;;;;;16.58;9.48;;;;;;;;;;5011299;28;20512;-61
2021/12/15 11:43:33;;;;;;;18.77;10.23;;;;;;;;;;5011917;28;20038;-61
2021/12/15 11:46:01;;;;;;;17.83;9.68;;;;;;;;;;5011442;28;20151;-61
2021/12/15 11:48:29;;;;;;;18.50;10.20;;;;;;;;;;5011767;28;20041;-62
2021/12/15 11:50:58;;;;;;;23.27;10.70;;;;;;;;;;5010279;28;20550;-61
2021/12/15 11:53:35;;;;;;;18.17;10.50;;;;;;;;;;5009911;28;20049;-61
2021/12/15 11:56:12;;;;;;;19.98;9.20;;;;;;;;;;5011170;28;20483;-62
2021/12/15 11:58:38;;;;;;;19.17;9.05;;;;;;;;;;5011773;28;20046;-62
2021/12/15 12:01:04;;;;;;;15.85;9.32;;;;;;;;;;4993385;28;20046;-61
2021/12/15 12:03:31;;;;;;;19.80;7.80;;;;;;;;;;5011519;28;20455;-61
2021/12/15 12:05:57;;;;;;;14.27;7.50;;;;;;;;;;5011443;28;20077;-62
2021/12/15 12:08:23;;;;;;;15.50;7.00;;;;;;;;;;5010049;28;20042;-61
2021/12/15 12:10:51;;;;;;;17.13;7.82;;;;;;;;;;5009857;28;20484;-62
2021/12/15 12:13:27;;;;;;;12.35;6.97;;;;;;;;;;5011039;28;20071;-61
2021/12/15 12:15:54;;;;;;;13.35;7.30;;;;;;;;;;5009363;28;20096;-62
2021/12/15 12:18:22;;;;;;;16.98;8.32;;;;;;;;;;5010959;28;20034;-61
2021/12/15 12:20:53;;;;;;;13.70;8.23;;;;;;;;;;5011029;28;20042;-61
2021/12/15 12:23:21;;;;;;;19.25;9.23;;;;;;;;;;5011154;28;20447;-61
2021/12/15 12:25:48;;;;;;;17.40;8.73;;;;;;;;;;5010484;28;20092;-61
2021/12/15 12:28:16;;;;;;;14.95;7.55;;;;;;;;;;5009747;28;20054;-61
2021/12/15 12:30:44;;;;;;;16.40;6.20;;;;;;;;;;5009138;28;20057;-61
2021/12/15 12:33:11;;;;;;;16.60;7.70;;;;;;;;;;5010986;28;20042;-61
2021/12/15 12:35:42;;;;;;;16.90;7.20;;;;;;;;;;5010923;28;20084;-61
2021/12/15 12:38:16;;;;;;;14.20;6.50;;;;;;;;;;5010934;28;20042;-61
2021/12/15 12:40:56;;;;;;;13.57;6.45;;;;;;;;;;5010437;28;20117;-61
2021/12/15 12:43:26;;;;;;;15.63;6.28;;;;;;;;;;5010135;28;20053;-61
2021/12/15 12:46:09;;;;;;;11.35;5.47;;;;;;;;;;5010638;28;20045;-61
2021/12/15 12:59:40;;;;;;;9.15;3.20;;;;;;;;;;5010748;28;20046;-61
2021/12/15 13:05:25;;;;;;;12.20;3.60;;;;;;;;;;5010161;28;20073;-61
2021/12/15 13:07:53;;;;;;;12.43;3.80;;;;;;;;;;5010398;28;20060;-61
2021/12/15 13:10:20;;;;;;;11.68;3.50;;;;;;;;;;5009176;28;20441;-61
2021/12/15 13:12:47;;;;;;;10.30;3.00;;;;;;;;;;5010050;28;20041;-61
2021/12/15 13:15:21;;;;;;;8.18;2.65;;;;;;;;;;5009898;28;20054;-61
2021/12/15 13:17:54;;;;;;;9.52;2.10;;;;;;;;;;5010081;28;20030;-61
2021/12/15 13:20:24;;;;;;;6.63;1.45;;;;;;;;;;5010361;28;20428;-61
2021/12/15 13:23:06;;;;;;;4.95;0.85;;;;;;;;;;5010266;28;20053;-61
2021/12/15 13:31:07;;;;;;;7.07;1.13;;;;;;;;;;5013704;28;20268;-61
2021/12/15 13:33:34;;;;;;;5.05;1.00;;;;;;;;;;5012261;28;20381;-61
2021/12/15 13:36:26;;;;;;;4.60;0.70;;;;;;;;;;5013839;28;20045;-61
2021/12/15 13:38:54;;;;;;;9.40;1.00;;;;;;;;;;4997166;28;20053;-61
2021/12/15 13:44:06;;;;;;;6.38;0.70;;;;;;;;;;5013573;28;20512;-60
2021/12/15 13:46:35;;;;;;;4.32;0.70;;;;;;;;;;5013637;28;20046;-60
2021/12/15 13:49:10;;;;;;;8.00;0.90;;;;;;;;;;5013357;28;20041;-60
2021/12/15 13:51:51;;;;;;;3.80;0.80;;;;;;;;;;5013647;28;20459;-60
2021/12/15 13:54:40;;;;;;;4.55;0.70;;;;;;;;;;5011942;28;20050;-60
2021/12/15 13:57:12;;;;;;;5.35;0.80;;;;;;;;;;5013183;28;20061;-60
2021/12/15 13:59:41;;;;;;;2.63;0.52;;;;;;;;;;5013375;28;20396;-60
2021/12/15 14:02:15;;;;;;;6.80;0.93;;;;;;;;;;5011617;28;20100;-61
2021/12/15 14:04:46;;;;;;;5.93;0.98;;;;;;;;;;5011329;28;20349;-60
2021/12/15 14:07:31;;;;;;;4.78;0.73;;;;;;;;;;5010828;28;20404;-60
2021/12/15 14:09:58;;;;;;;5.90;1.00;;;;;;;;;;5012220;28;20478;-60
2021/12/15 14:12:43;;;;;;;5.72;0.98;;;;;;;;;;5012170;28;20113;-60
2021/12/15 14:15:09;;;;;;;6.55;0.88;;;;;;;;;;5010370;28;20062;-60
2021/12/15 14:17:35;;;;;;;5.25;0.85;;;;;;;;;;5012366;28;20455;-61
2021/12/15 14:20:01;;;;;;;6.57;1.00;;;;;;;;;;5012337;28;20112;-61
2021/12/15 14:22:27;;;;;;;7.63;1.30;;;;;;;;;;5011840;28;20468;-61
2021/12/15 14:24:55;;;;;;;5.47;0.98;;;;;;;;;;5010855;28;20523;-61
2021/12/15 14:27:21;;;;;;;2.03;0.47;;;;;;;;;;5012438;28;20049;-61
2021/12/15 14:29:47;;;;;;;7.55;1.35;;;;;;;;;;5012902;28;20052;-61
2021/12/15 14:32:14;;;;;;;8.20;1.52;;;;;;;;;;5012827;28;20070;-61
2021/12/15 14:34:42;;;;;;;5.93;0.90;;;;;;;;;;5012368;28;20145;-62
2021/12/15 14:37:12;;;;;;;4.63;0.80;;;;;;;;;;5011731;28;20076;-61
2021/12/15 14:39:40;;;;;;;4.75;0.88;;;;;;;;;;5012248;28;20469;-61
2021/12/15 14:42:07;;;;;;;5.10;0.88;;;;;;;;;;5011146;28;20480;-60
2021/12/15 14:44:37;;;;;;;7.07;1.30;;;;;;;;;;5011820;28;20057;-60
2021/12/15 14:47:06;;;;;;;8.77;1.10;;;;;;;;;;5012008;28;20067;-60
2021/12/15 14:49:34;;;;;;;4.32;1.10;;;;;;;;;;5011225;28;20054;-60
2021/12/15 14:52:03;;;;;;;5.25;1.05;;;;;;;;;;5012213;28;20129;-60
2021/12/15 14:54:29;;;;;;;5.65;0.77;;;;;;;;;;5011945;28;20053;-60
2021/12/15 14:56:58;;;;;;;4.07;0.68;;;;;;;;;;5010449;28;20061;-60
2021/12/15 14:59:32;;;;;;;5.13;0.85;;;;;;;;;;5010486;28;20054;-60
2021/12/15 15:02:07;;;;;;;4.93;0.60;;;;;;;;;;5012034;28;20046;-60
2021/12/15 15:04:33;;;;;;;5.20;0.88;;;;;;;;;;4994005;28;20077;-60
2021/12/15 15:07:02;;;;;;;5.68;0.55;;;;;;;;;;5010805;28;20541;-60
2021/12/15 15:09:32;;;;;;;5.40;0.80;;;;;;;;;;5011835;28;20514;-61
2021/12/15 15:12:04;;;;;;;5.50;0.80;;;;;;;;;;5011857;28;20042;-61
2021/12/15 15:14:33;;;;;;;6.05;0.98;;;;;;;;;;5011547;28;20069;-60
2021/12/15 15:16:59;;;;;;;7.10;0.93;;;;;;;;;;5011737;28;20052;-61
2021/12/15 15:19:26;;;;;;;7.22;1.23;;;;;;;;;;5011334;28;20041;-62
2021/12/15 15:21:55;;;;;;;5.20;0.80;;;;;;;;;;5010871;28;20041;-62
2021/12/15 15:24:26;;;;;;;5.32;1.20;;;;;;;;;;5009822;28;20057;-62
2021/12/15 15:26:53;;;;;;;4.28;0.75;;;;;;;;;;5010907;28;20365;-62
2021/12/15 15:29:27;;;;;;;6.43;0.90;;;;;;;;;;5009306;28;20088;-62
2021/12/15 15:31:54;;;;;;;4.80;0.90;;;;;;;;;;5009575;28;20219;-62
2021/12/15 15:34:24;;;;;;;4.55;0.77;;;;;;;;;;5009570;28;20352;-62
2021/12/15 15:36:51;;;;;;;5.70;1.23;;;;;;;;;;5010880;28;20042;-62
2021/12/15 15:39:17;;;;;;;6.82;1.10;;;;;;;;;;5009534;28;20518;-61
2021/12/15 15:41:46;;;;;;;4.90;0.80;;;;;;;;;;5010141;28;20041;-62
2021/12/15 15:44:12;;;;;;;5.07;1.00;;;;;;;;;;5009461;28;20078;-61
2021/12/15 15:46:41;;;;;;;6.70;1.17;;;;;;;;;;5025505;28;20088;-62
2021/12/15 15:49:08;;;;;;;6.03;1.10;;;;;;;;;;5010428;28;20511;-62
2021/12/15 15:51:39;;;;;;;3.65;1.52;;;;;;;;;;5009730;28;20492;-61
2021/12/15 15:54:07;;;;;;;4.53;1.05;;;;;;;;;;5008580;28;20054;-62
2021/12/15 15:56:35;;;;;;;7.90;1.27;;;;;;;;;;5008618;28;20134;-62
2021/12/15 15:59:05;;;;;;;4.85;1.33;;;;;;;;;;5010178;28;20400;-62
2021/12/15 16:01:36;;;;;;;5.78;1.13;;;;;;;;;;5024897;28;20427;-62
2021/12/15 16:04:04;;;;;;;5.85;1.77;;;;;;;;;;5009871;28;20038;-62